Flight Track Log - Related Links

Times and Time Zones

All times are in EDT time to prevent confusion due to time zone crossing. See the EJA122 flight status page for this flight to view local times or setup timezone preferences in your user account.

Time Position Orientation Groundspeed Altitude Reporting Facility
EDT Latitude Longitude Course Direction KTS MPH feet Rate Location/Type
Sun 12:23:30 PM 43.2783 -114.2478 190° South 324 373 10,600  Level Salt Lake Center
Sun 12:24:00 PM 42.9701 -114.3567 189° South  Level FlightAware Approximate
Sun 12:24:32 PM 43.1889 -114.3192 210° Southwest 354 407 11,600  Level Salt Lake Center
Sun 12:25:00 PM 42.8752 -114.3777 189° South  Level FlightAware Approximate
Sun 12:25:34 PM 43.0811 -114.3464 190° South 375 432 13,100  Level Salt Lake Center
Sun 12:26:00 PM 42.7814 -114.4062 194° South  Level FlightAware Approximate
Sun 12:26:36 PM 42.9819 -114.3714 190° South 375 432 14,500  Level Salt Lake Center
Sun 12:27:00 PM 42.6879 -114.4364 190° South  Level FlightAware Approximate
Sun 12:27:38 PM 42.8906 -114.4483 212° Southwest 386 444 16,100  Level Salt Lake Center
Sun 12:28:00 PM 42.5934 -114.4600 190° South  Level FlightAware Approximate
Sun 12:28:40 PM 42.8125 -114.5519 224° Southwest 378 435 17,600  Level Salt Lake Center
Sun 12:29:42 PM 42.7344 -114.6550 224° Southwest 375 432 19,000 1,403 Climbing Salt Lake Center
Sun 12:30:44 PM 42.6597 -114.7547 224° Southwest 366 421 20,500 1,403 Climbing Salt Lake Center
Sun 12:31:46 PM 42.5917 -114.8444 224° Southwest 360 414 21,900 1,452 Climbing Salt Lake Center
Sun 12:32:48 PM 42.5125 -114.9500 225° Southwest 354 407 23,500 1,500 Climbing Salt Lake Center
Sun 12:33:50 PM 42.4453 -115.0389 224° Southwest 354 407 25,000 1,500 Climbing Salt Lake Center
Sun 12:34:52 PM 42.3661 -115.1408 224° Southwest 353 406 26,600 1,452 Climbing Salt Lake Center
Sun 12:35:54 PM 42.2983 -115.2292 224° Southwest 354 407 28,000 1,210 Climbing Salt Lake Center
Sun 12:36:56 PM 42.2175 -115.3339 224° Southwest 360 414 29,100 1,016 Climbing Salt Lake Center
Sun 12:37:58 PM 42.1458 -115.4267 224° Southwest 371 427 30,100 919 Climbing Salt Lake Center
Sun 12:39:00 PM 42.0694 -115.5253 224° Southwest 377 434 31,000 968 Climbing Salt Lake Center
Sun 12:40:02 PM 41.9856 -115.6339 224° Southwest 376 433 32,100 1,016 Climbing Salt Lake Center
Sun 12:41:04 PM 41.9136 -115.7275 224° Southwest 374 430 33,100 919 Climbing Salt Lake Center
Sun 12:42:06 PM 41.8417 -115.8186 223° Southwest 372 428 34,000 968 Climbing Salt Lake Center
Sun 12:43:08 PM 41.7589 -115.9228 223° Southwest 365 420 35,100 968 Climbing Salt Lake Center
Sun 12:44:10 PM 41.6881 -116.0111 223° Southwest 363 418 36,000 871 Climbing Salt Lake Center
Sun 12:45:12 PM 41.6072 -116.1158 224° Southwest 363 418 36,900 774 Climbing Salt Lake Center
Sun 12:46:14 PM 41.5367 -116.2044 223° Southwest 363 418 37,600 532 Climbing Salt Lake Center
Sun 12:47:16 PM 41.4542 -116.3089 224° Southwest 366 421 38,000 194 Climbing Salt Lake Center
Sun 12:48:18 PM 41.3797 -116.4019 223° Southwest 381 438 38,000  Level Salt Lake Center
Sun 12:49:20 PM 41.2906 -116.5136 223° Southwest 393 452 38,000  Level Salt Lake Center
Sun 12:50:22 PM 41.2142 -116.6108 224° Southwest 398 458 38,000  Level Salt Lake Center
Sun 12:51:24 PM 41.1233 -116.7217 223° Southwest 397 457 38,000  Level Salt Lake Center
Sun 12:52:26 PM 41.0472 -116.8164 223° Southwest 394 453 38,000  Level Salt Lake Center
Sun 12:53:28 PM 40.9586 -116.9261 223° Southwest 393 452 38,000  Level Salt Lake Center
Sun 12:54:31 PM 40.8806 -117.0197 222° Southwest 395 455 38,000  Level Salt Lake Center
Sun 12:55:33 PM 40.7908 -117.1283 223° Southwest 393 452 38,000  Level Salt Lake Center
Sun 12:56:35 PM 40.7156 -117.2217 223° Southwest 392 451 38,000  Level Salt Lake Center
Sun 12:57:37 PM 40.6264 -117.3294 223° Southwest 391 450 38,000  Level Salt Lake Center
Sun 12:58:39 PM 40.5503 -117.4208 222° Southwest 389 448 38,000  Level Salt Lake Center
Sun 12:59:41 PM 40.4617 -117.5283 223° Southwest 389 448 38,000  Level Salt Lake Center
Sun 01:00:43 PM 40.3850 -117.6200 222° Southwest 389 448 38,000  Level Salt Lake Center
Sun 01:01:45 PM 40.2947 -117.7256 222° Southwest 390 449 38,000  Level Salt Lake Center
Sun 01:02:47 PM 40.2194 -117.8172 223° Southwest 387 445 38,000  Level Salt Lake Center
Sun 01:03:49 PM 40.1297 -117.9233 222° Southwest 387 445 38,000  Level Salt Lake Center
Sun 01:04:51 PM 40.0597 -118.0056 222° Southwest 388 447 38,000  Level Salt Lake Center
Sun 01:05:53 PM 39.9644 -118.1192 222° Southwest 386 444 38,000  Level Salt Lake Center
Sun 01:06:55 PM 39.8836 -118.2139 222° Southwest 389 448 38,000  Level Salt Lake Center
Sun 01:07:56 PM 39.7933 -118.2922 214° Southwest 390 449 38,000  Level Salt Lake Center
Sun 01:08:58 PM 39.6986 -118.3614 209° Southwest 389 448 38,000  Level Salt Lake Center
Sun 01:10:00 PM 39.6031 -118.4303 209° Southwest 390 449 38,000  Level Salt Lake Center
Sun 01:11:09 PM 39.4878 -118.5128 209° Southwest 391 450 38,000 -46 Level Oakland Center
Sun 01:12:10 PM 39.3919 -118.5814 209° Southwest 391 450 37,900 -541 Descending Oakland Center
Sun 01:13:11 PM 39.2947 -118.6511 209° Southwest 403 464 36,900 -1,024 Descending Oakland Center
Sun 01:14:13 PM 39.1886 -118.7261 209° Southwest 405 466 35,800 -1,073 Descending Oakland Center
Sun 01:15:14 PM 39.0897 -118.7967 209° Southwest 404 465 34,700 -878 Descending Oakland Center
Sun 01:16:16 PM 38.9917 -118.8656 209° Southwest 403 464 34,000 -341 Descending Oakland Center
Sun 01:17:17 PM 38.8958 -118.9342 209° Southwest 393 452 34,000  Level Oakland Center
Sun 01:18:19 PM 38.7953 -119.0031 208° Southwest 404 465 34,000  Level Oakland Center
Sun 01:19:20 PM 38.6956 -119.0736 209° Southwest 410 472 34,000  Level Oakland Center
Sun 01:20:22 PM 38.5944 -119.1444 209° Southwest 412 474 34,000  Level Oakland Center
Sun 01:21:23 PM 38.4722 -119.2283 208° Southwest 414 476 34,000 -293 Level Oakland Center
Sun 01:22:25 PM 38.3708 -119.2986 209° Southwest 415 478 33,400 -829 Descending Oakland Center
Sun 01:23:26 PM 38.2694 -119.3700 209° Southwest 414 476 32,300 -1,024 Descending Oakland Center
Sun 01:24:28 PM 38.1681 -119.4386 208° Southwest 412 474 31,300 -976 Descending Oakland Center
Sun 01:25:29 PM 38.0744 -119.5031 208° Southwest 403 464 30,300 -1,073 Descending Oakland Center
Sun 01:26:31 PM 37.9733 -119.5722 208° Southwest 406 467 29,100 -1,317 Descending Oakland Center
Sun 01:27:32 PM 37.8711 -119.6425 208° Southwest 417 480 27,600 -1,512 Descending Oakland Center
Sun 01:28:34 PM 37.7672 -119.7122 208° Southwest 421 484 26,000 -1,707 Descending Oakland Center
Sun 01:29:35 PM 37.6539 -119.8139 215° Southwest 419 482 24,100 -1,721 Descending Oakland Center
Sun 01:30:36 PM 37.5731 -119.9211 226° Southwest 418 481 22,500 -1,561 Descending Oakland Center
Sun 01:31:38 PM 37.4953 -120.0275 227° Southwest 415 478 20,900 -1,220 Descending Oakland Center
Sun 01:32:39 PM 37.4172 -120.1314 227° Southwest 410 472 20,000 -488 Descending Oakland Center
Sun 01:33:41 PM 37.3394 -120.2356 227° Southwest 408 470 19,900 -1,073 Descending Oakland Center
Sun 01:34:42 PM 37.2644 -120.3381 227° Southwest 400 460 17,800 -2,100 Descending Oakland Center
Sun 01:35:21 PM 37.2167 -120.4167 233° Southwest 416 479 16,400 -2,242 Descending Northern Cal TRACON
Sun 01:36:21 PM 37.1833 -120.5500 253° West 420 483 14,100 -2,211 Descending Northern Cal TRACON
Sun 01:37:15 PM 37.1667 -120.6667 260° West 376 433 12,200 -2,053 Descending Northern Cal TRACON
Sun 01:38:15 PM 37.1333 -120.7833 250° West 362 417 10,200 -1,100 Descending Northern Cal TRACON
Sun 01:39:15 PM 37.1167 -120.9000 260° West 334 384 10,000 -126 Descending Northern Cal TRACON
Sun 01:39:50 PM 37.0983 -120.9608 249° West 329 379 10,000 62 Level Oakland Center
Sun 01:40:52 PM 37.0731 -121.0742 254° West 336 387 10,100 49 Climbing Oakland Center
Sun 01:41:53 PM 37.0639 -121.1908 264° West 327 376 10,100  Level Oakland Center
Sun 01:42:55 PM 37.0586 -121.2925 266° West 299 344 10,100 -195 Level Oakland Center
Sun 01:43:56 PM 37.0536 -121.3914 266° West 294 338 9,700 -732 Descending Oakland Center
Sun 01:44:58 PM 37.0489 -121.4919 267° West 287 330 8,600 -1,024 Descending Oakland Center
Sun 01:45:59 PM 37.0586 -121.5869 277° West 288 331 7,600 -927 Descending Oakland Center
Sun 01:47:01 PM 37.1125 -121.6483 318° Northwest 267 307 6,700 -1,171 Descending Oakland Center
Sun 01:48:02 PM 37.1636 -121.7147 314° West 263 303 5,200 -1,317 Descending Oakland Center
Sun 01:49:04 PM 37.2111 -121.7697 317° Northwest 247 284 4,000 -1,355 Descending Oakland Center
Sun 01:50:06 PM 37.2644 -121.8256 320° Northwest 219 252 2,400 -1,122 Descending Oakland Center
Sun 01:51:07 PM 37.2933 -121.8542 322° Northwest 163 188 1,700 -683 Descending Oakland Center
Sun 01:52:09 PM 37.3169 -121.8833 316° Northwest 135 155 1,000 -634 Descending Oakland Center
Sun 01:53:10 PM 37.3419 -121.9100 320° Northwest 124 143 400 -590 Descending Oakland Center
Sun 01:55:00 PM 37.3500 -121.9167 North  Level FlightAware Approximate

Login

Don't have an account? Register now (free) for customized features, flight alerts, and more!